Time;durP1;ratioP1;P1;durP2;ratioP2;P2;SDS_P1;SDS_P2;PMS_P1;PMS_P2;Temp;Humidity;BMP_temperature;BMP_pressure;BME280_temperature;BME280_humidity;BME280_pressure;Samples;Min_cycle;Max_cycle;Signal;HPM_P1;HPM_P2
2023/07/16 00:01:30;;;;;;;9.83;5.13;;;19.90;99.90;;;;;;4138643;28;20303;-71
2023/07/16 00:03:32;;;;;;;7.63;5.30;;;20.00;99.90;;;;;;4135932;28;20310;-71
2023/07/16 00:05:34;;;;;;;7.13;4.80;;;20.00;99.90;;;;;;4135536;28;20212;-71
2023/07/16 00:07:36;;;;;;;6.70;4.60;;;20.00;99.90;;;;;;4136353;28;20219;-71
2023/07/16 00:09:38;;;;;;;6.93;3.90;;;20.00;99.90;;;;;;4136032;28;20318;-71
2023/07/16 00:11:40;;;;;;;5.60;3.80;;;20.10;99.90;;;;;;4136075;28;20232;-71
2023/07/16 00:13:45;;;;;;;6.93;3.83;;;20.20;99.90;;;;;;4137165;28;20892;-71
2023/07/16 00:15:47;;;;;;;7.27;3.83;;;20.20;99.90;;;;;;4140716;28;20220;-71
2023/07/16 00:17:51;;;;;;;5.70;3.90;;;20.10;99.90;;;;;;4137856;28;20667;-76
2023/07/16 00:19:53;;;;;;;12.40;4.40;;;19.90;99.90;;;;;;4137044;28;20275;-76
2023/07/16 00:21:54;;;;;;;6.03;4.17;;;19.60;99.90;;;;;;4134888;28;20701;-75
2023/07/16 00:23:56;;;;;;;6.67;3.73;;;19.40;99.90;;;;;;4134544;28;20756;-76
2023/07/16 00:25:58;;;;;;;12.30;4.13;;;19.30;99.90;;;;;;4139339;28;20324;-76
2023/07/16 00:28:00;;;;;;;8.50;4.27;;;19.10;99.90;;;;;;4138291;28;20213;-76
2023/07/16 00:30:01;;;;;;;11.37;4.97;;;19.10;99.90;;;;;;4142265;28;20691;-75
2023/07/16 00:32:06;;;;;;;12.83;5.13;;;19.00;99.90;;;;;;4140574;28;20222;-75
2023/07/16 00:34:09;;;;;;;10.27;5.33;;;19.00;99.90;;;;;;4137613;28;20209;-75
2023/07/16 00:36:11;;;;;;;8.60;5.17;;;19.00;99.90;;;;;;4138651;28;20206;-75
2023/07/16 00:38:13;;;;;;;10.47;5.20;;;18.90;99.90;;;;;;4140382;28;20680;-75
2023/07/16 00:40:15;;;;;;;15.17;5.40;;;18.90;99.90;;;;;;4141286;28;20674;-75
2023/07/16 00:42:16;;;;;;;10.83;5.53;;;18.90;99.90;;;;;;4137979;28;20250;-75
2023/07/16 00:44:18;;;;;;;8.00;4.63;;;18.90;99.90;;;;;;4139540;28;20288;-75
2023/07/16 00:46:20;;;;;;;8.57;5.43;;;18.90;99.90;;;;;;4137237;28;20303;-75
2023/07/16 00:48:22;;;;;;;9.37;5.20;;;18.90;99.90;;;;;;4139113;28;20248;-75
2023/07/16 00:50:25;;;;;;;10.33;5.30;;;18.90;99.90;;;;;;4144759;28;20644;-75
2023/07/16 00:52:28;;;;;;;11.07;5.47;;;18.90;99.90;;;;;;4139495;28;20284;-75
2023/07/16 00:54:31;;;;;;;8.13;5.27;;;18.90;99.90;;;;;;4139816;28;20750;-76
2023/07/16 00:56:34;;;;;;;6.77;4.77;;;18.90;99.90;;;;;;4141105;28;20688;-75
2023/07/16 00:58:35;;;;;;;8.77;5.63;;;18.90;99.90;;;;;;4143374;28;20230;-75
2023/07/16 01:00:40;;;;;;;8.90;5.13;;;18.90;99.90;;;;;;4138004;28;20237;-75
2023/07/16 01:02:40;;;;;;;7.40;4.90;;;18.90;99.90;;;;;;4138955;28;20590;-75
2023/07/16 01:04:42;;;;;;;7.43;4.80;;;18.80;99.90;;;;;;4139658;28;20236;-76
2023/07/16 01:06:50;;;;;;;10.47;4.97;;;18.80;99.90;;;;;;4138921;28;20218;-76
2023/07/16 01:08:58;;;;;;;11.57;5.13;;;18.80;99.90;;;;;;4137309;28;20581;-75
2023/07/16 01:11:02;;;;;;;7.67;4.80;;;18.80;99.90;;;;;;4138196;28;20728;-75
2023/07/16 01:13:04;;;;;;;12.07;4.97;;;18.80;99.90;;;;;;4136177;28;20229;-75
2023/07/16 01:15:07;;;;;;;11.43;5.27;;;18.80;99.90;;;;;;4136024;28;20451;-75
2023/07/16 01:17:08;;;;;;;11.50;5.27;;;18.90;99.90;;;;;;4137521;28;20213;-75
2023/07/16 01:19:10;;;;;;;8.07;4.27;;;18.90;99.90;;;;;;4139471;28;20668;-75
2023/07/16 01:21:12;;;;;;;8.23;5.00;;;18.80;99.90;;;;;;4140563;28;20228;-75
2023/07/16 01:23:32;;;;;;;6.83;4.83;;;18.90;99.90;;;;;;4138266;28;20604;-75
2023/07/16 01:25:55;;;;;;;9.00;5.60;;;18.90;99.90;;;;;;4141965;28;20210;-75
2023/07/16 01:28:14;;;;;;;12.43;5.27;;;18.90;99.90;;;;;;4138798;28;20222;-75
2023/07/16 01:30:20;;;;;;;7.90;5.10;;;18.90;99.90;;;;;;4137505;28;20244;-75
2023/07/16 01:32:22;;;;;;;8.50;5.33;;;18.90;99.90;;;;;;4141862;28;20314;-75
2023/07/16 01:34:27;;;;;;;7.57;4.90;;;18.90;99.90;;;;;;4140916;28;20853;-75
2023/07/16 01:36:30;;;;;;;10.97;5.60;;;19.00;99.90;;;;;;4138189;28;20218;-75
2023/07/16 01:38:33;;;;;;;13.13;5.33;;;19.00;99.90;;;;;;4138919;28;20314;-75
2023/07/16 01:40:34;;;;;;;7.97;5.20;;;18.90;99.90;;;;;;4137745;28;20318;-75
2023/07/16 01:42:36;;;;;;;10.13;5.50;;;18.90;99.90;;;;;;4140570;28;20302;-75
2023/07/16 01:44:37;;;;;;;9.97;5.60;;;19.00;99.90;;;;;;4139145;28;20852;-75
2023/07/16 01:46:40;;;;;;;13.60;5.37;;;19.00;99.90;;;;;;4138175;28;20209;-75
2023/07/16 01:48:42;;;;;;;6.97;4.80;;;19.00;99.90;;;;;;4137782;28;20308;-75
2023/07/16 01:50:43;;;;;;;13.83;5.23;;;19.00;99.90;;;;;;4137251;28;20258;-75
2023/07/16 01:52:45;;;;;;;7.73;4.93;;;19.00;99.90;;;;;;4138160;28;20575;-75
2023/07/16 01:54:50;;;;;;;8.60;4.97;;;19.00;99.90;;;;;;4140103;28;20629;-75
2023/07/16 01:56:52;;;;;;;11.07;5.00;;;19.10;99.90;;;;;;4145009;28;20317;-74
2023/07/16 01:58:53;;;;;;;9.77;5.60;;;19.00;99.90;;;;;;4142315;28;20536;-75
2023/07/16 02:00:55;;;;;;;9.23;5.50;;;19.00;99.90;;;;;;4136773;28;20289;-76
2023/07/16 02:02:59;;;;;;;8.00;4.90;;;18.90;99.90;;;;;;4142358;28;20327;-74
2023/07/16 02:05:00;;;;;;;7.93;4.83;;;18.90;99.90;;;;;;4143033;28;20295;-75
2023/07/16 02:07:02;;;;;;;11.00;5.40;;;18.90;99.90;;;;;;4143255;28;20225;-74
2023/07/16 02:09:04;;;;;;;9.80;4.87;;;18.90;99.90;;;;;;4137442;28;20247;-74
2023/07/16 02:11:06;;;;;;;10.33;4.73;;;18.90;99.90;;;;;;4140557;28;20246;-74
2023/07/16 02:13:08;;;;;;;9.87;5.37;;;18.90;99.90;;;;;;4138668;28;20306;-75
2023/07/16 02:15:10;;;;;;;7.53;5.50;;;18.90;99.90;;;;;;4138862;28;20626;-74
2023/07/16 02:17:12;;;;;;;8.07;4.93;;;18.90;99.90;;;;;;4140188;28;20219;-75
2023/07/16 02:19:16;;;;;;;6.80;4.47;;;18.90;99.90;;;;;;4141633;28;20243;-75
2023/07/16 02:21:17;;;;;;;7.13;4.80;;;18.80;99.90;;;;;;4137419;28;20856;-74
2023/07/16 02:23:19;;;;;;;5.23;4.10;;;18.80;99.90;;;;;;4140624;28;20738;-74
2023/07/16 02:25:21;;;;;;;9.47;4.43;;;18.80;99.90;;;;;;4143884;28;20211;-74
2023/07/16 02:27:23;;;;;;;7.13;4.13;;;18.90;99.90;;;;;;4144252;28;20301;-74
2023/07/16 02:29:25;;;;;;;9.00;4.17;;;18.90;99.90;;;;;;4143805;28;20269;-74
2023/07/16 02:31:27;;;;;;;7.37;4.60;;;18.90;99.90;;;;;;4140120;28;20214;-74
2023/07/16 02:33:29;;;;;;;6.13;4.53;;;18.90;99.90;;;;;;4137225;28;20319;-75
2023/07/16 02:35:32;;;;;;;9.37;5.00;;;18.80;99.90;;;;;;4142060;28;20313;-74
2023/07/16 02:37:34;;;;;;;8.17;4.97;;;18.80;99.90;;;;;;4139100;28;20299;-74
2023/07/16 02:39:36;;;;;;;9.43;5.47;;;18.90;99.90;;;;;;4135584;28;20758;-74
2023/07/16 02:41:38;;;;;;;14.53;5.57;;;18.80;99.90;;;;;;4140736;28;20768;-74
2023/07/16 02:43:39;;;;;;;9.23;5.10;;;18.80;99.90;;;;;;4135779;28;20206;-74
2023/07/16 02:45:42;;;;;;;7.17;5.50;;;18.80;99.90;;;;;;4145099;28;20207;-74
2023/07/16 02:47:46;;;;;;;10.07;5.07;;;18.90;99.90;;;;;;4144730;28;20211;-74
2023/07/16 02:49:51;;;;;;;7.20;4.90;;;18.90;99.90;;;;;;4147407;28;20708;-74
2023/07/16 02:51:54;;;;;;;7.60;4.90;;;18.90;99.90;;;;;;4143608;28;20971;-74
2023/07/16 02:53:56;;;;;;;8.53;5.00;;;18.90;99.90;;;;;;4145353;28;20301;-74
2023/07/16 02:55:58;;;;;;;10.10;5.17;;;18.90;99.90;;;;;;4144421;28;20327;-74
2023/07/16 02:58:04;;;;;;;10.17;5.33;;;18.90;99.90;;;;;;4141419;28;20303;-74
2023/07/16 03:00:07;;;;;;;9.63;5.40;;;18.90;99.90;;;;;;4144410;28;20281;-74
2023/07/16 03:02:09;;;;;;;6.93;5.27;;;18.90;99.90;;;;;;4141559;28;20216;-74
2023/07/16 03:04:11;;;;;;;8.67;5.30;;;18.90;99.90;;;;;;4140001;28;20246;-74
2023/07/16 03:06:12;;;;;;;12.57;5.30;;;18.90;99.90;;;;;;4143924;28;20242;-74
2023/07/16 03:08:15;;;;;;;7.70;4.70;;;18.90;99.90;;;;;;4140949;28;20651;-74
2023/07/16 03:10:17;;;;;;;7.07;5.50;;;18.90;99.90;;;;;;4139331;28;20232;-74
2023/07/16 03:12:19;;;;;;;12.23;4.90;;;18.90;99.90;;;;;;4139376;28;20219;-74
2023/07/16 03:14:20;;;;;;;8.00;5.23;;;18.90;99.90;;;;;;4136743;28;20214;-74
2023/07/16 03:16:21;;;;;;;11.40;4.60;;;18.80;99.90;;;;;;4137575;28;20793;-74
2023/07/16 03:18:28;;;;;;;7.23;4.90;;;18.80;99.90;;;;;;4135767;28;20306;-74
2023/07/16 03:20:30;;;;;;;8.13;4.53;;;18.90;99.90;;;;;;4138937;28;20772;-74
2023/07/16 03:22:32;;;;;;;7.33;4.90;;;18.80;99.90;;;;;;4137047;28;20753;-74
2023/07/16 03:24:35;;;;;;;8.23;4.87;;;18.80;99.90;;;;;;4134790;28;20684;-74
2023/07/16 03:26:37;;;;;;;6.90;4.63;;;18.80;99.90;;;;;;4137707;28;20627;-74
2023/07/16 03:28:39;;;;;;;8.87;5.07;;;18.90;99.90;;;;;;4142626;28;20238;-74
2023/07/16 03:30:45;;;;;;;6.37;4.60;;;18.90;99.90;;;;;;4138476;28;20333;-74
2023/07/16 03:32:47;;;;;;;6.73;4.47;;;18.90;99.90;;;;;;4140300;28;20206;-74
2023/07/16 03:34:49;;;;;;;8.40;5.10;;;18.80;99.90;;;;;;4137282;28;20745;-74
2023/07/16 03:36:51;;;;;;;8.63;4.93;;;18.90;99.90;;;;;;4139693;28;20343;-74
2023/07/16 03:38:53;;;;;;;6.00;4.50;;;18.80;99.90;;;;;;4139611;28;20215;-74
2023/07/16 03:40:56;;;;;;;10.23;4.63;;;18.90;99.90;;;;;;4137228;28;20680;-74
2023/07/16 03:42:58;;;;;;;7.57;4.80;;;18.90;99.90;;;;;;4138713;28;20216;-74
2023/07/16 03:45:00;;;;;;;8.20;4.90;;;18.80;99.90;;;;;;4136511;28;20221;-74
2023/07/16 03:47:01;;;;;;;7.70;4.57;;;18.80;99.90;;;;;;4133730;28;20291;-74
2023/07/16 03:49:03;;;;;;;7.07;4.70;;;18.90;99.90;;;;;;4139138;28;20305;-74
2023/07/16 03:51:05;;;;;;;7.20;4.83;;;18.90;99.90;;;;;;4135447;28;20291;-74
2023/07/16 03:53:07;;;;;;;7.30;4.93;;;18.90;99.90;;;;;;4137668;28;20204;-74
2023/07/16 03:55:08;;;;;;;6.83;4.87;;;18.90;99.90;;;;;;4135205;28;20216;-73
2023/07/16 03:57:12;;;;;;;6.97;3.87;;;18.90;99.90;;;;;;4137060;28;20228;-73
2023/07/16 03:59:13;;;;;;;7.73;4.73;;;18.90;99.90;;;;;;4139709;28;20245;-73
2023/07/16 04:01:15;;;;;;;7.87;4.53;;;18.90;99.90;;;;;;4141309;28;20311;-73
2023/07/16 04:03:17;;;;;;;8.50;4.30;;;18.90;99.90;;;;;;4141945;28;20217;-74
2023/07/16 04:05:19;;;;;;;10.77;4.83;;;18.90;99.90;;;;;;4139181;28;20763;-74
2023/07/16 04:07:21;;;;;;;8.33;4.77;;;18.90;99.90;;;;;;4138054;28;20216;-73
2023/07/16 04:09:23;;;;;;;5.83;4.30;;;18.90;99.90;;;;;;4142129;28;20779;-73
2023/07/16 04:11:25;;;;;;;9.93;4.53;;;18.90;99.90;;;;;;4138447;28;20221;-74
2023/07/16 04:13:28;;;;;;;7.93;4.60;;;18.90;99.90;;;;;;4141592;28;20574;-73
2023/07/16 04:15:30;;;;;;;8.43;4.50;;;18.90;99.90;;;;;;4142592;28;20237;-73
2023/07/16 04:17:32;;;;;;;8.90;4.33;;;18.90;99.90;;;;;;4140044;28;20305;-73
2023/07/16 04:19:34;;;;;;;5.87;3.93;;;18.90;99.90;;;;;;4140600;28;20626;-73
2023/07/16 04:21:36;;;;;;;7.77;4.10;;;18.90;99.90;;;;;;4136910;28;20634;-73
2023/07/16 04:23:38;;;;;;;8.23;4.67;;;18.90;99.90;;;;;;4143179;28;20749;-73
2023/07/16 04:25:40;;;;;;;6.87;4.40;;;18.90;99.90;;;;;;4136011;28;20588;-73
2023/07/16 04:27:43;;;;;;;8.03;4.40;;;18.90;99.90;;;;;;4138358;28;20763;-73
2023/07/16 04:29:47;;;;;;;7.93;4.07;;;18.90;99.90;;;;;;4141850;28;20240;-73
2023/07/16 04:31:49;;;;;;;6.63;4.07;;;19.00;99.90;;;;;;4138997;28;20308;-73
2023/07/16 04:33:51;;;;;;;4.57;4.00;;;19.00;99.90;;;;;;4141716;28;20678;-73
2023/07/16 04:35:53;;;;;;;5.47;3.80;;;19.00;99.90;;;;;;4139357;28;20289;-73
2023/07/16 04:37:55;;;;;;;7.83;4.10;;;19.00;99.90;;;;;;4138218;28;20239;-73
2023/07/16 04:39:56;;;;;;;6.20;4.03;;;19.00;99.90;;;;;;4141778;28;20235;-74
2023/07/16 04:41:57;;;;;;;6.63;4.10;;;19.00;99.90;;;;;;4141406;28;20208;-74
2023/07/16 04:43:59;;;;;;;6.60;4.37;;;19.00;99.90;;;;;;4141463;28;20303;-74
2023/07/16 04:46:02;;;;;;;7.87;4.20;;;19.00;99.90;;;;;;4141777;28;20715;-74
2023/07/16 04:48:05;;;;;;;9.37;4.50;;;19.00;99.90;;;;;;4142206;28;20315;-74
2023/07/16 04:50:07;;;;;;;7.50;3.67;;;19.00;99.90;;;;;;4140752;28;20252;-74
2023/07/16 04:52:08;;;;;;;8.67;3.93;;;19.00;99.90;;;;;;4141016;28;20318;-74
2023/07/16 04:54:10;;;;;;;7.43;4.03;;;19.10;99.90;;;;;;4139477;28;21057;-74
2023/07/16 04:56:13;;;;;;;5.93;3.80;;;19.10;99.90;;;;;;4140545;28;20319;-74
2023/07/16 04:58:15;;;;;;;4.53;3.57;;;19.10;99.90;;;;;;4139775;28;20209;-74
2023/07/16 05:00:17;;;;;;;4.73;3.80;;;19.10;99.90;;;;;;4136769;28;20930;-74
2023/07/16 05:02:20;;;;;;;7.03;3.60;;;19.10;99.90;;;;;;4138508;28;20306;-74
2023/07/16 05:04:22;;;;;;;6.13;3.47;;;19.20;99.90;;;;;;4138739;28;20219;-73
2023/07/16 05:06:24;;;;;;;6.57;3.70;;;19.20;99.90;;;;;;4139826;28;20755;-74
2023/07/16 05:08:26;;;;;;;4.63;3.37;;;19.20;99.90;;;;;;4138757;28;20208;-74
2023/07/16 05:10:28;;;;;;;7.87;3.67;;;19.30;99.90;;;;;;4133893;28;20268;-74
2023/07/16 05:12:30;;;;;;;7.90;3.57;;;19.30;99.90;;;;;;4138749;28;20301;-74
2023/07/16 05:14:32;;;;;;;4.47;3.17;;;19.30;99.90;;;;;;4135897;28;20203;-74
2023/07/16 05:16:34;;;;;;;6.20;3.47;;;19.30;99.90;;;;;;4143490;28;20223;-74
2023/07/16 05:18:37;;;;;;;4.53;3.37;;;19.40;99.90;;;;;;4139757;28;20234;-73
2023/07/16 05:20:38;;;;;;;7.83;3.40;;;19.40;99.90;;;;;;4140337;28;20235;-73
2023/07/16 05:22:40;;;;;;;8.50;3.40;;;19.40;99.90;;;;;;4136935;28;20861;-74
2023/07/16 05:24:42;;;;;;;5.27;3.50;;;19.40;99.90;;;;;;4136262;28;20219;-74
2023/07/16 05:26:44;;;;;;;6.40;3.13;;;19.40;99.90;;;;;;4135327;28;20738;-74
2023/07/16 05:28:46;;;;;;;5.20;3.00;;;19.50;99.90;;;;;;4140461;28;20684;-74
2023/07/16 05:30:48;;;;;;;6.37;3.30;;;19.50;99.90;;;;;;4136222;28;20760;-74
2023/07/16 05:32:50;;;;;;;4.20;2.80;;;19.50;99.90;;;;;;4139663;28;20284;-74
2023/07/16 05:34:52;;;;;;;4.27;2.97;;;19.50;99.90;;;;;;4140503;28;20216;-74
2023/07/16 05:36:55;;;;;;;4.47;2.77;;;19.60;99.90;;;;;;4138526;28;20314;-74
2023/07/16 05:38:57;;;;;;;5.13;2.80;;;19.60;99.90;;;;;;4139397;28;20271;-73
2023/07/16 05:41:02;;;;;;;5.13;2.50;;;19.60;99.90;;;;;;4146207;28;20301;-73
2023/07/16 05:43:04;;;;;;;5.83;2.87;;;19.60;99.90;;;;;;4139618;28;20278;-73
2023/07/16 05:45:07;;;;;;;4.03;2.60;;;19.60;99.90;;;;;;4140183;28;20212;-73
2023/07/16 05:47:09;;;;;;;4.70;2.50;;;19.60;99.90;;;;;;4138084;28;20758;-73
2023/07/16 05:49:11;;;;;;;3.47;2.50;;;19.50;99.90;;;;;;4136354;28;20310;-73
2023/07/16 05:51:14;;;;;;;3.10;2.00;;;19.50;99.90;;;;;;4140297;28;20216;-73
2023/07/16 05:53:16;;;;;;;4.53;2.37;;;19.50;99.90;;;;;;4141751;28;20216;-73
2023/07/16 05:55:18;;;;;;;4.33;2.63;;;19.50;99.90;;;;;;4141527;28;20678;-73
2023/07/16 05:57:20;;;;;;;4.43;1.90;;;19.40;99.90;;;;;;4135851;28;20307;-72
2023/07/16 05:59:22;;;;;;;2.40;2.00;;;19.40;99.90;;;;;;4135566;28;20267;-72
2023/07/16 06:01:24;;;;;;;4.40;2.17;;;19.40;99.90;;;;;;4133308;28;20988;-71
2023/07/16 06:03:26;;;;;;;4.50;2.00;;;19.40;99.90;;;;;;4134627;28;20235;-72
2023/07/16 06:05:32;;;;;;;4.27;2.40;;;19.40;99.90;;;;;;4136471;28;20303;-71
2023/07/16 06:07:35;;;;;;;2.63;2.27;;;19.50;99.90;;;;;;4134548;28;20208;-71
2023/07/16 06:09:37;;;;;;;5.60;2.00;;;19.50;99.90;;;;;;4137184;28;20231;-71
2023/07/16 06:11:39;;;;;;;4.13;1.83;;;19.50;99.90;;;;;;4137427;28;20247;-71
2023/07/16 06:13:41;;;;;;;4.57;2.23;;;19.60;99.90;;;;;;4137310;28;20218;-71
2023/07/16 06:15:43;;;;;;;2.47;1.87;;;19.60;99.90;;;;;;4133915;28;20220;-72
2023/07/16 06:17:44;;;;;;;3.73;2.00;;;19.60;99.90;;;;;;4136109;28;20949;-72
2023/07/16 06:19:48;;;;;;;3.53;2.00;;;19.60;99.90;;;;;;4134025;28;20263;-71
2023/07/16 06:21:50;;;;;;;2.63;1.83;;;19.70;99.90;;;;;;4135415;28;20212;-72
2023/07/16 06:23:53;;;;;;;2.60;1.90;;;19.70;99.90;;;;;;4136086;28;20215;-72
2023/07/16 06:25:55;;;;;;;2.37;1.90;;;19.70;99.90;;;;;;4134103;28;20217;-72
2023/07/16 06:27:57;;;;;;;3.40;1.80;;;19.80;99.90;;;;;;4135155;28;20682;-71
2023/07/16 06:29:59;;;;;;;4.30;2.10;;;19.80;99.90;;;;;;4138117;28;20323;-72
2023/07/16 06:32:02;;;;;;;5.30;1.93;;;19.80;99.90;;;;;;4137258;28;20220;-72
2023/07/16 06:34:04;;;;;;;4.23;2.10;;;19.90;99.90;;;;;;4134127;28;20219;-72
2023/07/16 06:36:06;;;;;;;3.00;1.80;;;19.80;99.90;;;;;;4135517;28;20693;-72
2023/07/16 06:38:08;;;;;;;3.73;2.10;;;19.90;99.90;;;;;;4134800;28;20204;-72
2023/07/16 06:40:12;;;;;;;4.87;2.13;;;19.90;99.90;;;;;;4134761;28;20236;-73
2023/07/16 06:42:14;;;;;;;6.23;2.10;;;19.90;99.90;;;;;;4135332;28;20937;-72
2023/07/16 06:44:16;;;;;;;4.10;2.10;;;20.00;99.90;;;;;;4135634;28;20212;-72
2023/07/16 06:46:18;;;;;;;3.83;1.70;;;20.00;99.90;;;;;;4134278;28;20204;-72
2023/07/16 06:48:19;;;;;;;3.27;1.87;;;20.00;99.90;;;;;;4134835;28;20213;-72
2023/07/16 06:50:21;;;;;;;5.87;1.83;;;20.00;99.90;;;;;;4135138;28;20311;-72
2023/07/16 06:52:27;;;;;;;5.67;1.97;;;20.00;99.90;;;;;;4134516;28;20208;-72
2023/07/16 06:54:29;;;;;;;3.83;1.70;;;20.10;99.90;;;;;;4135956;28;20244;-71
2023/07/16 06:56:32;;;;;;;5.77;1.90;;;20.10;99.90;;;;;;4133130;28;20233;-71
2023/07/16 06:58:34;;;;;;;4.50;1.83;;;20.10;99.90;;;;;;4136546;28;20216;-72
2023/07/16 07:00:36;;;;;;;5.13;1.60;;;20.10;99.90;;;;;;4136674;28;20242;-71
2023/07/16 07:02:38;;;;;;;6.63;1.90;;;20.10;99.90;;;;;;4133719;28;20219;-72
2023/07/16 07:04:40;;;;;;;6.70;1.87;;;20.20;99.90;;;;;;4138651;28;20298;-72
2023/07/16 07:06:42;;;;;;;4.40;2.03;;;20.20;99.90;;;;;;4138695;28;20212;-71
2023/07/16 07:08:44;;;;;;;4.30;1.60;;;20.20;99.90;;;;;;4136632;28;20204;-72
2023/07/16 07:10:47;;;;;;;6.87;1.90;;;20.20;99.90;;;;;;4139555;28;20337;-71
2023/07/16 07:12:50;;;;;;;3.20;1.53;;;20.20;99.90;;;;;;4135880;28;20302;-72
2023/07/16 07:14:52;;;;;;;5.37;1.97;;;20.20;99.90;;;;;;4136927;28;20211;-72
2023/07/16 07:16:54;;;;;;;3.43;1.47;;;20.20;99.90;;;;;;4136678;28;20239;-73
2023/07/16 07:18:57;;;;;;;4.63;2.00;;;20.20;99.90;;;;;;4138401;28;20291;-73
2023/07/16 07:20:59;;;;;;;4.17;1.63;;;20.30;99.90;;;;;;4133725;28;20204;-73
2023/07/16 07:23:03;;;;;;;4.43;1.73;;;20.40;99.90;;;;;;4135873;28;20781;-73
2023/07/16 07:25:05;;;;;;;5.70;1.53;;;20.40;99.90;;;;;;4136993;28;20216;-72
2023/07/16 07:27:10;;;;;;;6.03;1.90;;;20.50;99.90;;;;;;4138134;28;20214;-72
2023/07/16 07:29:14;;;;;;;3.43;1.80;;;20.50;99.90;;;;;;4137517;28;20211;-72
2023/07/16 07:31:16;;;;;;;4.87;1.50;;;20.50;99.90;;;;;;4137819;28;20219;-72
2023/07/16 07:33:17;;;;;;;4.43;1.40;;;20.50;99.90;;;;;;4137005;28;20215;-70
2023/07/16 07:35:19;;;;;;;4.50;1.73;;;20.50;99.90;;;;;;4141546;28;20295;-71
2023/07/16 07:37:21;;;;;;;6.23;1.63;;;20.50;99.90;;;;;;4143685;28;20319;-71
2023/07/16 07:39:23;;;;;;;2.67;1.50;;;20.50;99.90;;;;;;4139345;28;20228;-72
2023/07/16 07:41:25;;;;;;;4.33;1.60;;;20.60;99.90;;;;;;4139310;28;20219;-71
2023/07/16 07:43:27;;;;;;;4.33;1.60;;;20.60;99.90;;;;;;4142253;28;20204;-71
2023/07/16 07:45:31;;;;;;;6.00;1.50;;;20.70;99.90;;;;;;4143889;28;20217;-72
2023/07/16 07:47:33;;;;;;;4.50;1.60;;;20.70;99.90;;;;;;4140459;28;20220;-72
2023/07/16 07:49:34;;;;;;;2.93;1.53;;;20.70;99.90;;;;;;4143889;28;20343;-72
2023/07/16 07:51:38;;;;;;;3.57;1.60;;;20.70;99.90;;;;;;4144653;28;20645;-72
2023/07/16 07:53:40;;;;;;;3.53;1.73;;;20.80;99.90;;;;;;4144896;28;20295;-72
2023/07/16 07:55:45;;;;;;;4.03;1.40;;;20.80;99.90;;;;;;4142476;28;20645;-72
2023/07/16 07:57:47;;;;;;;4.33;1.30;;;20.90;99.90;;;;;;4138477;28;20235;-71
2023/07/16 07:59:51;;;;;;;4.33;1.57;;;21.00;99.90;;;;;;4142961;28;20232;-72
2023/07/16 08:01:54;;;;;;;6.07;1.67;;;21.00;99.90;;;;;;4141413;28;20300;-72
2023/07/16 08:03:56;;;;;;;5.10;1.83;;;21.10;99.90;;;;;;4144076;28;20298;-72
2023/07/16 08:05:58;;;;;;;5.30;1.53;;;21.20;99.90;;;;;;4143274;28;20308;-71
2023/07/16 08:08:00;;;;;;;3.67;1.40;;;21.30;99.90;;;;;;4141131;28;20709;-72
2023/07/16 08:10:02;;;;;;;3.33;1.30;;;21.30;99.90;;;;;;4139992;28;20232;-71
2023/07/16 08:12:03;;;;;;;5.80;1.40;;;21.30;99.90;;;;;;4140682;28;20240;-71
2023/07/16 08:14:05;;;;;;;4.90;1.57;;;21.40;99.90;;;;;;4142196;28;20672;-71
2023/07/16 08:16:07;;;;;;;6.03;1.60;;;21.30;99.90;;;;;;4142727;28;20241;-71
2023/07/16 08:18:10;;;;;;;4.83;1.37;;;21.30;99.90;;;;;;4143305;28;20317;-72
2023/07/16 08:20:13;;;;;;;5.57;1.60;;;21.40;99.90;;;;;;4142737;28;20248;-72
2023/07/16 08:22:14;;;;;;;2.50;1.40;;;21.40;99.90;;;;;;4140998;28;20208;-71
2023/07/16 08:24:16;;;;;;;4.50;1.83;;;21.40;99.90;;;;;;4148070;28;20236;-72
2023/07/16 08:26:18;;;;;;;2.97;1.20;;;21.50;99.90;;;;;;4140394;28;20323;-72
2023/07/16 08:28:20;;;;;;;5.57;1.40;;;21.60;99.90;;;;;;4140136;28;20215;-72
2023/07/16 08:30:22;;;;;;;6.07;1.50;;;21.60;99.90;;;;;;4144646;28;20723;-72
2023/07/16 08:32:24;;;;;;;3.93;1.30;;;21.60;99.90;;;;;;4142722;28;20295;-72
2023/07/16 08:34:28;;;;;;;4.57;1.20;;;21.70;99.90;;;;;;4145198;28;20253;-72
2023/07/16 08:36:29;;;;;;;2.87;1.40;;;21.70;99.90;;;;;;4143517;28;20296;-72
2023/07/16 08:38:31;;;;;;;3.90;1.33;;;21.70;99.90;;;;;;4140815;28;20332;-72
2023/07/16 08:40:35;;;;;;;6.87;1.30;;;21.70;99.90;;;;;;4141684;28;20232;-72
2023/07/16 08:42:38;;;;;;;3.10;1.10;;;21.80;99.90;;;;;;4140553;28;20216;-72
2023/07/16 08:44:40;;;;;;;3.40;1.40;;;21.80;99.90;;;;;;4141088;28;20211;-71
2023/07/16 08:46:42;;;;;;;5.70;1.60;;;21.90;99.90;;;;;;4140089;28;20742;-71
2023/07/16 08:48:46;;;;;;;4.90;1.70;;;21.90;99.90;;;;;;4137356;28;20216;-71
2023/07/16 08:50:50;;;;;;;4.93;1.67;;;22.10;99.90;;;;;;4140833;28;20328;-71
2023/07/16 08:52:54;;;;;;;4.37;1.43;;;22.20;99.90;;;;;;4139890;28;20302;-71
2023/07/16 08:54:56;;;;;;;5.87;1.60;;;22.30;99.90;;;;;;4139477;28;20224;-71
2023/07/16 08:56:59;;;;;;;4.53;1.37;;;22.50;99.90;;;;;;4137017;28;20212;-71
2023/07/16 08:59:01;;;;;;;5.43;1.50;;;22.50;99.90;;;;;;4141204;28;20215;-71
2023/07/16 09:01:04;;;;;;;7.07;1.50;;;22.50;99.90;;;;;;4142433;28;20223;-73
2023/07/16 09:03:05;;;;;;;4.50;1.40;;;22.60;99.90;;;;;;4135872;28;20239;-72
2023/07/16 09:05:09;;;;;;;3.07;1.47;;;22.60;99.90;;;;;;4142814;28;20306;-72
2023/07/16 09:07:13;;;;;;;6.07;2.03;;;22.70;99.90;;;;;;4140508;28;20292;-72
2023/07/16 09:09:22;;;;;;;5.37;1.67;;;22.80;99.90;;;;;;4137368;28;20262;-71
2023/07/16 09:11:24;;;;;;;2.67;1.30;;;22.80;99.90;;;;;;4141359;28;20239;-72
2023/07/16 09:13:27;;;;;;;4.13;1.40;;;22.90;99.90;;;;;;4139147;28;20288;-71
2023/07/16 09:15:30;;;;;;;1.77;1.43;;;23.00;99.90;;;;;;4140015;28;20218;-71
2023/07/16 09:17:34;;;;;;;6.23;1.60;;;23.10;99.90;;;;;;4141413;28;20238;-74
2023/07/16 09:19:37;;;;;;;5.50;1.50;;;23.20;99.90;;;;;;4141761;28;20230;-73
2023/07/16 09:21:38;;;;;;;3.73;1.57;;;23.20;99.90;;;;;;4140234;28;20302;-74
2023/07/16 09:23:43;;;;;;;2.90;1.50;;;23.20;99.90;;;;;;4136759;28;20222;-71
2023/07/16 09:25:45;;;;;;;6.77;1.73;;;23.10;99.90;;;;;;4138598;28;20676;-73
2023/07/16 09:27:50;;;;;;;7.97;1.30;;;23.10;99.90;;;;;;4138860;28;20215;-76
2023/07/16 09:29:51;;;;;;;2.30;1.30;;;23.10;99.90;;;;;;4140552;28;20655;-75
2023/07/16 09:31:54;;;;;;;3.30;1.33;;;23.10;99.90;;;;;;4138329;28;20306;-70
2023/07/16 09:33:58;;;;;;;3.03;1.40;;;23.10;99.90;;;;;;4137123;28;20211;-75
2023/07/16 09:36:02;;;;;;;3.70;1.50;;;23.00;99.90;;;;;;4140462;28;20220;-71
2023/07/16 09:38:05;;;;;;;3.17;1.53;;;23.00;99.90;;;;;;4139665;28;20238;-71
2023/07/16 09:40:11;;;;;;;4.77;1.30;;;23.10;99.90;;;;;;4137374;28;20743;-72
2023/07/16 09:42:15;;;;;;;5.83;1.40;;;23.10;99.90;;;;;;4140583;28;20270;-72
2023/07/16 09:44:18;;;;;;;4.27;1.30;;;23.10;99.90;;;;;;4140540;28;20664;-69
2023/07/16 09:46:20;;;;;;;4.77;1.40;;;23.20;99.90;;;;;;4136438;28;20307;-71
2023/07/16 09:48:22;;;;;;;3.73;1.40;;;23.20;99.90;;;;;;4139016;28;20246;-71
2023/07/16 09:50:25;;;;;;;3.07;1.17;;;23.20;99.90;;;;;;4138648;28;20327;-71
2023/07/16 09:52:28;;;;;;;2.63;1.43;;;23.30;99.90;;;;;;4138097;28;20211;-71
2023/07/16 09:54:33;;;;;;;5.50;1.40;;;23.30;99.90;;;;;;4140201;28;20254;-73
2023/07/16 09:56:39;;;;;;;4.83;1.50;;;23.40;99.90;;;;;;4139507;28;20214;-71
2023/07/16 09:58:42;;;;;;;3.97;1.27;;;23.50;99.90;;;;;;4135833;28;20278;-70
2023/07/16 10:00:45;;;;;;;3.10;1.23;;;23.50;99.90;;;;;;4138120;28;20270;-70
2023/07/16 10:02:47;;;;;;;2.73;1.40;;;23.50;99.90;;;;;;4135937;28;20387;-70
2023/07/16 10:04:49;;;;;;;4.30;1.30;;;23.60;99.90;;;;;;4144085;28;20576;-71
2023/07/16 10:06:52;;;;;;;2.57;1.20;;;23.60;99.90;;;;;;4137848;28;20247;-70
2023/07/16 10:08:54;;;;;;;3.00;1.50;;;23.60;99.90;;;;;;4138480;28;20243;-71
2023/07/16 10:10:58;;;;;;;3.10;1.50;;;23.70;99.90;;;;;;4142644;28;20303;-72
2023/07/16 10:13:05;;;;;;;5.90;1.67;;;23.80;99.90;;;;;;4140202;28;20579;-72
2023/07/16 10:15:07;;;;;;;2.30;1.40;;;23.80;99.90;;;;;;4139029;28;20665;-70
2023/07/16 10:17:13;;;;;;;3.40;1.50;;;23.90;99.90;;;;;;4139634;28;20701;-74
2023/07/16 10:19:24;;;;;;;4.57;1.30;;;24.00;99.90;;;;;;4141478;28;20327;-70
2023/07/16 10:21:26;;;;;;;4.87;1.40;;;24.00;99.90;;;;;;4138786;28;20234;-70
2023/07/16 10:23:39;;;;;;;3.10;1.37;;;24.10;90.70;;;;;;4134784;28;20299;-70
2023/07/16 10:25:41;;;;;;;2.93;1.50;;;24.20;99.90;;;;;;4138998;28;20597;-70
2023/07/16 10:27:43;;;;;;;4.30;1.33;;;24.30;99.00;;;;;;4137467;28;20736;-70
2023/07/16 10:29:46;;;;;;;2.73;1.33;;;24.50;99.90;;;;;;4139727;28;20712;-70
2023/07/16 10:31:49;;;;;;;3.50;1.20;;;24.50;99.90;;;;;;4136692;28;20213;-71
2023/07/16 10:34:00;;;;;;;4.90;1.50;;;24.50;99.90;;;;;;4138999;28;20244;-71
2023/07/16 10:36:02;;;;;;;4.10;1.33;;;24.50;99.90;;;;;;4139908;28;20212;-71
2023/07/16 10:38:04;;;;;;;4.83;1.20;;;24.50;85.20;;;;;;4139051;28;20240;-71